Airfield :
LOGIN :

Register | Disclaimer

   EN    FR    IT 

 










Legend :    VFR   Marginal VFR   IFR   Intensive IFR   Very Intensive IFR
Visi :
Ceiling :
>= 8 km
>= 3000ft
5 to 8 km
1000 to 3000 ft
1500m to 5 km
500 to 1000 ft
800 to 1500m
200 to 500 ft
< 800m
< 200 ft
Symbols :   Thunderstorms  Fog  Heavy snow  Heavy precipitations  Wind > 20 kt
SIGMETs :     Misc.  Thunderstorms  Icing  Turbulence  Mountain Waves  Volcanic Ashes







- Airport Elevation : 302 ft
- IATA code : MAH


LEMH - Menorca

CURRENT METAR :
  • 222014Z 20008KT 170V230 9999 BKN013 26/23 Q1017

EXPIRED METARs :
  • 222000Z 20006KT 170V230 9999 SCT012 25/23 Q1016
  • 221930Z 20004KT 170V230 9999 FEW014 25/22 Q1016
  • 221900Z 19006KT 9999 FEW015 26/22 Q1015
  • 221830Z 19005KT 160V230 9999 FEW016 26/22 Q1015
  • 221800Z 19006KT 160V230 9999 SCT016 27/22 Q1015
  • 221730Z 21005KT 150V260 9999 SCT016 27/22 Q1015

TAF TAF LEMH
Valid from the 22 at 15:00 until the 23 at 15:00 UTC


221400Z 2215/2315 17010KT 9999 SCT022 TX30/2312Z TN23/2305Z
BECMG 2300/2304 04008KT
PROB30
TEMPO 2303/2309 BKN014
No reported NOTAMs for that airfield.



MET'MAP, your aeronautical weather chart ! - Copyright ORBIFLY December 2007 - Disclaimer

ORBIFLY MET'MAP TEAM :

Programming & Development : Alexandra Zaïnal
Concept & Development : Baudouin d'Aumeries
Co-Development & Prog : Marc-Olivier Méhu
Technical & hardware support : Manuel Goepfert

Contact : metmap@orbifly.com




SOURCES & CREDITS :

   NOAA